YSNW/NOA METAR and TAF weather

Enter ICAO airport designator
Station Type Date Time Source
YSNW METAR 2019/04/18 10:30 UTC NOAA

YSNW 181030Z AUTO 21007KT 9999 // SCT014 BKN019 OVC025 17/17 Q1028


Station Type Date Time Source
YSNW Decoded METAR 2019/04/18 10:30 UTC NOAA

Nowra Ran Air Station, Australia (YSNW) 34-57S 150-32E 110M
Apr 18, 2019 - 06:30 AM EDT / 2019.04.18 1030 UTC
Wind: from the SSW (210 degrees) at 8 MPH (7 KT):0
Visibility: greater than 7 mile(s):0
Sky conditions: overcast
Temperature: 62 F (17 C)
Dew Point: 62 F (17 C)
Relative Humidity: 100%
Pressure (altimeter): 30.36 in. Hg (1028 hPa)
ob: YSNW 181030Z AUTO 21007KT 9999 // SCT014 BKN019 OVC025 17/17 Q1028
cycle: 10

Station Type Date Time Source
YSNW TAF UTC NOAA

Error!

Example: see airport list